Nearby METAR Reports

 

KSJC - San Jose, California, USA
Distance from station: NE 9mi, 14km
Updated: Thu, 29-Feb-2024 4:53am CST
Clear
Clear
 Wind from S
Wind: S 7 mph , 11 km/h
Temperature: 52°F , 11°C
Dew Point: 45°F , 7°C
Humidity: 77%
Barometer: 30.02 inHg , 1016.6 hPa
Clouds: Clear
Visibility: 10 miles , 16 km
2024/02/29 10:53 KSJC 291053Z AUTO 18006KT 10SM CLR 11/07 A3002 RMK AO2 SLP166 T01060072
KNUQ - Moffett Nas/Mtn, California, USA
Distance from station: N 9mi, 14km
Updated: Thu, 29-Feb-2024 4:55am CST
Few Clouds
Few Clouds
 Wind from S
Wind: S 3 mph , 6 km/h
Temperature: 46°F , 8°C
Dew Point: 45°F , 7°C
Humidity: 93%
Barometer: 30.02 inHg , 1016.6 hPa
Clouds: Few Clouds
Visibility: 9 miles , 14 km
Cloud details: Few Clouds 1700 ft
2024/02/29 10:55 KNUQ 291055Z AUTO 19003KT 9SM FEW017 08/07 A3002 RMK AO2
 
KPAO - Palo Alto, California, USA
Distance from station: NNW 14mi, 23km
Updated: Wed, 28-Feb-2024 10:47pm CST
NOT Current
Clear
Clear
 Wind from calm
Wind: Calm
Temperature: 50°F , 10°C
Dew Point: 45°F , 7°C
Humidity: 82%
Barometer: 30.03 inHg , 1016.9 hPa
Clouds: Clear
Visibility: 10 miles , 16 km
2024/02/29 04:47 KPAO 290447Z 00000KT 10SM SKC 10/07 A3003
KRHV - San Jose/Reid, California, USA
Distance from station: ENE 12mi, 19km
Updated: Wed, 28-Feb-2024 11:55pm CST
NOT Current
Clear
Clear
 Wind from S
Wind: S 9 mph , 15 km/h, Gust: 17 mph , 28 km/h
Temperature: 52°F , 11°C
Dew Point: 43°F , 6°C
Humidity: 72%
Barometer: 30.04 inHg , 1017.3 hPa
Clouds: Clear
Visibility: 10 miles , 16 km
2024/02/29 05:55 KRHV 290555Z 17008G15KT 10SM SKC 11/06 A3004 RMK LAST
 
KOAK - Oakland, California, USA
Distance from station: NNW 31mi, 50km
Updated: Thu, 29-Feb-2024 4:53am CST
Mostly cloudy
Mostly cloudy
 Wind from SW
Wind: SW 10 mph , 17 km/h
Temperature: 52°F , 11°C
Dew Point: 46°F , 8°C
Humidity: 82%
Barometer: 30.02 inHg , 1016.6 hPa
Clouds: Mostly cloudy
Visibility: 10 miles , 16 km
Cloud details: Partly cloudy 900 ft
Mostly cloudy 10000 ft
2024/02/29 10:53 KOAK 291053Z 22009KT 10SM SCT009 BKN100 11/08 A3002 RMK AO2 SLP166 T01060083
KSQL - San Carlos Airpo, California, USA
Distance from station: NW 21mi, 34km
Updated: Thu, 29-Feb-2024 5:15am CST
Partly cloudy
Partly cloudy
 Wind from S
Wind: S 3 mph , 6 km/h
Temperature: 48°F , 9°C
Dew Point: 45°F , 7°C
Humidity: 87%
Barometer: 30.03 inHg , 1016.9 hPa
Clouds: Partly cloudy
Visibility: 10 miles , 16 km
Cloud details: Partly cloudy 3100 ft
2024/02/29 11:15 KSQL 291115Z AUTO 19003KT 10SM SCT031 09/07 A3003 RMK AO2
 
KSFO - San Francisco, California, USA
Distance from station: NW 30mi, 49km
Updated: Thu, 29-Feb-2024 4:56am CST
Mostly cloudy
Mostly cloudy
 Wind from SSE
Wind: SSE 3 mph , 6 km/h
Temperature: 54°F , 12°C
Dew Point: 46°F , 8°C
Humidity: 77%
Barometer: 30.02 inHg , 1016.6 hPa
Clouds: Mostly cloudy
Visibility: 10 miles , 16 km
Cloud details: Few Clouds 1600 ft
Mostly cloudy 1800 ft
2024/02/29 10:56 KSFO 291056Z 16003KT 10SM FEW016 BKN018 12/08 A3002 RMK AO2 SLP165 T01170083 $
KE16 - San Martin, California, USA
Distance from station: ESE 27mi, 43km
Updated: Thu, 29-Feb-2024 4:55am CST
Overcast
Overcast
 Wind from SSE
Wind: SSE 5 mph , 7 km/h
Temperature: 46°F , 8°C
Wind Chill: 44°F , 7°C
Dew Point: 46°F , 8°C
Humidity: 100%
Barometer: 30.06 inHg , 1017.9 hPa
Clouds: Overcast
Visibility: 10 miles , 16 km
Cloud details: Overcast 1800 ft
2024/02/29 10:55 KE16 291055Z AUTO 15004KT 10SM OVC018 08/08 A3006 RMK AO2
 
KWVI - Watsonville, California, USA
Distance from station: SSE 27mi, 44km
Updated: Thu, 29-Feb-2024 4:53am CST
Overcast
Overcast
 Wind from NW
Wind: NW 3 mph , 6 km/h
Temperature: 46°F , 8°C
Dew Point: 43°F , 6°C
Humidity: 87%
Barometer: 30.05 inHg , 1017.6 hPa
Clouds: Overcast
Visibility: 10 miles , 16 km
Cloud details: Overcast 2000 ft
2024/02/29 10:53 KWVI 291053Z AUTO 32003KT 10SM OVC020 08/06 A3005 RMK AO2 SLP177 T00830061
KHAF - Half Moon Bay, California, USA
Distance from station: WNW 31mi, 50km
Updated: Thu, 29-Feb-2024 5:15am CST
Mist, Overcast
Mist, Overcast
 Wind from SSW
Wind: SSW 10 mph , 17 km/h
Temperature: 52°F , 11°C
Dew Point: 52°F , 11°C
Humidity: 100%
Barometer: 30.03 inHg , 1016.9 hPa
Summary: Mist
Clouds: Overcast
Visibility: 4 miles , 6 km
Cloud details: Mostly cloudy 800 ft
Overcast 1200 ft
2024/02/29 11:15 KHAF 291115Z AUTO 20009KT 4SM BR BKN008 OVC012 11/11 A3003 RMK AO2
 
KHWD - Hayward, California, USA
Distance from station: N 28mi, 44km
Updated: Thu, 29-Feb-2024 4:54am CST
Mostly cloudy
Mostly cloudy
 Wind from calm
Wind: Calm
Temperature: 52°F , 11°C
Dew Point: 46°F , 8°C
Humidity: 82%
Barometer: 30.01 inHg , 1016.3 hPa
Clouds: Mostly cloudy
Visibility: 10 miles , 16 km
Cloud details: Mostly cloudy 1900 ft
2024/02/29 10:54 KHWD 291054Z 00000KT 10SM BKN019 11/08 A3001 RMK AO2 SLP173 T01110078
KLVK - Livermore, California, USA
Distance from station: NNE 31mi, 51km
Updated: Thu, 29-Feb-2024 4:53am CST
Clear
Clear
 Wind from calm
Wind: Calm
Temperature: 45°F , 7°C
Dew Point: 41°F , 5°C
Humidity: 87%
Barometer: 30.01 inHg , 1016.3 hPa
Clouds: Clear
Visibility: 10 miles , 16 km
2024/02/29 10:53 KLVK 291053Z AUTO 00000KT 10SM CLR 07/05 A3001 RMK AO2 SLP159 T00720050